createdAt,value
2017-01-12T00:00:22.017Z,995.14
2017-01-12T00:01:21.715Z,995.07
2017-01-12T00:02:21.830Z,995.11
2017-01-12T00:03:21.900Z,995.08
2017-01-12T00:04:21.763Z,995.14
2017-01-12T00:05:22.030Z,995.14
2017-01-12T00:06:22.017Z,995.12
2017-01-12T00:07:21.914Z,995.15
2017-01-12T00:08:22.459Z,995.07
2017-01-12T00:09:21.856Z,995.11
2017-01-12T00:10:22.410Z,995.12
2017-01-12T00:11:21.899Z,995.19
2017-01-12T00:12:21.914Z,995.21
2017-01-12T00:13:22.341Z,995.22
2017-01-12T00:14:22.039Z,995.19
2017-01-12T00:15:22.033Z,995.24
2017-01-12T00:16:22.157Z,995.22
2017-01-12T00:17:22.200Z,995.24
2017-01-12T00:18:21.933Z,995.2
2017-01-12T00:19:22.314Z,995.22
2017-01-12T00:20:22.285Z,995.26
2017-01-12T00:21:21.934Z,995.26
2017-01-12T00:22:22.391Z,995.26
2017-01-12T00:23:22.113Z,995.26
2017-01-12T00:24:22.062Z,995.23
2017-01-12T00:25:22.104Z,995.21
2017-01-12T00:26:22.271Z,995.15
2017-01-12T00:27:22.512Z,995.12
2017-01-12T00:28:22.183Z,995.2
2017-01-12T00:29:22.082Z,995.2
2017-01-12T00:30:22.261Z,995.1
2017-01-12T00:31:22.320Z,995.23
2017-01-12T00:32:22.183Z,995.24
2017-01-12T00:33:22.940Z,995.24
2017-01-12T00:34:22.296Z,995.26
2017-01-12T00:35:22.445Z,995.32
2017-01-12T00:36:22.440Z,995.29
2017-01-12T00:37:22.708Z,995.24
2017-01-12T00:38:22.409Z,995.19
2017-01-12T00:39:22.278Z,995.21
2017-01-12T00:40:22.946Z,995.12
2017-01-12T00:41:22.546Z,995.2
2017-01-12T00:42:22.530Z,995.22
2017-01-12T00:43:22.383Z,995.27
2017-01-12T00:44:22.300Z,995.24
2017-01-12T00:45:22.638Z,995.27
2017-01-12T00:46:22.564Z,995.3
2017-01-12T00:47:22.338Z,995.28
2017-01-12T00:48:22.414Z,995.35
2017-01-12T00:49:22.725Z,995.36
2017-01-12T00:50:22.417Z,995.39
2017-01-12T00:51:22.360Z,995.34
2017-01-12T00:52:22.676Z,995.29
2017-01-12T00:53:22.603Z,995.35
2017-01-12T00:54:22.657Z,995.42
2017-01-12T00:55:22.665Z,995.41
2017-01-12T00:56:22.701Z,995.49
2017-01-12T00:57:22.737Z,995.46
2017-01-12T00:58:22.525Z,995.49
2017-01-12T00:59:22.506Z,995.45
2017-01-12T01:00:23.440Z,995.39
2017-01-12T01:01:22.624Z,995.48
2017-01-12T01:02:22.779Z,995.46
2017-01-12T01:03:22.608Z,995.45
2017-01-12T01:04:22.619Z,995.5
2017-01-12T01:05:23.528Z,995.5
2017-01-12T01:06:22.889Z,995.52
2017-01-12T01:07:22.579Z,995.51
2017-01-12T01:08:22.697Z,995.61
2017-01-12T01:09:22.757Z,995.57
2017-01-12T01:10:22.657Z,995.51
2017-01-12T01:11:22.958Z,995.52
2017-01-12T01:12:22.647Z,995.54
2017-01-12T01:13:22.779Z,995.56
2017-01-12T01:14:22.787Z,995.58
2017-01-12T01:15:23.019Z,995.59
2017-01-12T01:16:23.773Z,995.65
2017-01-12T01:17:22.797Z,995.57
2017-01-12T01:18:23.141Z,995.69
2017-01-12T01:19:22.928Z,995.72
2017-01-12T01:20:22.956Z,995.65
2017-01-12T01:21:23.068Z,995.71
2017-01-12T01:22:22.973Z,995.71
2017-01-12T01:23:23.489Z,995.68
2017-01-12T01:24:23.099Z,995.65
2017-01-12T01:25:23.136Z,995.67
2017-01-12T01:26:23.016Z,995.71
2017-01-12T01:27:22.906Z,995.74
2017-01-12T01:28:23.001Z,995.77
2017-01-12T01:29:22.951Z,995.67
2017-01-12T01:30:23.005Z,995.71
2017-01-12T01:31:23.025Z,995.75
2017-01-12T01:32:22.979Z,995.68
2017-01-12T01:33:23.393Z,995.76
2017-01-12T01:34:23.202Z,995.71
2017-01-12T01:35:24.006Z,995.66
2017-01-12T01:36:23.067Z,995.69
2017-01-12T01:37:23.148Z,995.83
2017-01-12T01:38:22.929Z,995.86
2017-01-12T01:39:23.875Z,995.81
2017-01-12T01:40:23.175Z,995.85
2017-01-12T01:41:23.258Z,995.89
2017-01-12T01:42:23.218Z,995.87
2017-01-12T01:43:23.201Z,995.84
2017-01-12T01:44:23.140Z,995.78
2017-01-12T01:45:23.740Z,995.74
2017-01-12T01:46:23.787Z,995.94
2017-01-12T01:47:23.549Z,995.87
2017-01-12T01:48:23.186Z,995.91
2017-01-12T01:49:23.804Z,995.99
2017-01-12T01:50:23.765Z,995.89
2017-01-12T01:51:23.200Z,995.88
2017-01-12T01:52:23.495Z,995.93
2017-01-12T01:53:23.397Z,995.94
2017-01-12T01:54:23.371Z,995.99
2017-01-12T01:55:23.371Z,995.99
2017-01-12T01:56:23.205Z,996.12
2017-01-12T01:57:23.254Z,996.01
2017-01-12T01:58:23.216Z,995.98
2017-01-12T01:59:23.678Z,996.08
2017-01-12T02:00:23.613Z,996.07
2017-01-12T02:01:23.687Z,996.01
2017-01-12T02:02:23.478Z,996.12
2017-01-12T02:03:23.878Z,996.1
2017-01-12T02:04:24.104Z,996.15
2017-01-12T02:05:23.639Z,996.23
2017-01-12T02:06:23.971Z,996.17
2017-01-12T02:07:24.187Z,996.21
2017-01-12T02:08:23.774Z,996.23
2017-01-12T02:09:23.678Z,996.25
2017-01-12T02:10:23.843Z,996.27
2017-01-12T02:11:23.506Z,996.22
2017-01-12T02:12:23.583Z,996.32
2017-01-12T02:13:23.783Z,996.31
2017-01-12T02:14:23.576Z,996.31
2017-01-12T02:15:23.810Z,996.37
2017-01-12T02:16:23.783Z,996.3
2017-01-12T02:17:23.967Z,996.29
2017-01-12T02:18:23.882Z,996.35
2017-01-12T02:19:23.662Z,996.43
2017-01-12T02:20:24.002Z,996.33
2017-01-12T02:21:23.907Z,996.3
2017-01-12T02:22:23.986Z,996.36
2017-01-12T02:23:23.731Z,996.41
2017-01-12T02:24:23.546Z,996.38
2017-01-12T02:25:24.200Z,996.43
2017-01-12T02:26:23.692Z,996.37
2017-01-12T02:27:24.163Z,996.41
2017-01-12T02:28:23.812Z,996.26
2017-01-12T02:29:23.832Z,996.4
2017-01-12T02:30:23.791Z,996.35
2017-01-12T02:31:23.918Z,996.39
2017-01-12T02:32:23.823Z,996.43
2017-01-12T02:33:24.086Z,996.4
2017-01-12T02:34:24.066Z,996.46
2017-01-12T02:35:23.942Z,996.42
2017-01-12T02:36:23.778Z,996.44
2017-01-12T02:37:23.786Z,996.35
2017-01-12T02:38:23.863Z,996.4
2017-01-12T02:39:23.963Z,996.43
2017-01-12T02:40:24.401Z,996.53
2017-01-12T02:41:23.907Z,996.52
2017-01-12T02:42:23.873Z,996.55
2017-01-12T02:43:24.015Z,996.52
2017-01-12T02:44:24.065Z,996.48
2017-01-12T02:45:24.157Z,996.5
2017-01-12T02:46:24.220Z,996.44
2017-01-12T02:47:24.161Z,996.46
2017-01-12T02:48:24.112Z,996.36
2017-01-12T02:49:23.962Z,996.32
2017-01-12T02:50:24.223Z,996.46
2017-01-12T02:51:24.298Z,996.4
2017-01-12T02:52:24.126Z,996.39
2017-01-12T02:53:24.150Z,996.42
2017-01-12T02:54:24.398Z,996.42
2017-01-12T02:55:24.161Z,996.39
2017-01-12T02:56:24.140Z,996.42
2017-01-12T02:57:24.691Z,996.47
2017-01-12T02:58:24.323Z,996.37
2017-01-12T02:59:24.417Z,996.34
2017-01-12T03:00:24.323Z,996.41
2017-01-12T03:01:24.112Z,996.31
2017-01-12T03:02:24.486Z,996.29
2017-01-12T03:03:24.143Z,996.35
2017-01-12T03:04:24.421Z,996.28
2017-01-12T03:05:24.340Z,996.36
2017-01-12T03:06:24.180Z,996.36
2017-01-12T03:07:24.531Z,996.28
2017-01-12T03:08:24.586Z,996.36
2017-01-12T03:09:24.160Z,996.4
2017-01-12T03:10:24.883Z,996.38
2017-01-12T03:11:24.392Z,996.41
2017-01-12T03:12:24.269Z,996.43
2017-01-12T03:13:24.403Z,996.4
2017-01-12T03:14:24.344Z,996.39
2017-01-12T03:15:24.307Z,996.44
2017-01-12T03:16:24.724Z,996.41
2017-01-12T03:17:24.562Z,996.42
2017-01-12T03:18:24.287Z,996.35
2017-01-12T03:19:24.396Z,996.37
2017-01-12T03:20:24.615Z,996.45
2017-01-12T03:21:24.581Z,996.34
2017-01-12T03:22:24.438Z,996.32
2017-01-12T03:23:24.461Z,996.43
2017-01-12T03:24:24.711Z,996.31
2017-01-12T03:25:24.813Z,996.28
2017-01-12T03:26:24.379Z,996.39
2017-01-12T03:27:24.778Z,996.37
2017-01-12T03:28:24.680Z,996.48
2017-01-12T03:29:24.636Z,996.41
2017-01-12T03:30:24.680Z,996.47
2017-01-12T03:31:24.736Z,996.54
2017-01-12T03:32:24.696Z,996.52
2017-01-12T03:33:24.969Z,996.47
2017-01-12T03:34:24.906Z,996.44
2017-01-12T03:35:25.169Z,996.46
2017-01-12T03:36:24.696Z,996.49
2017-01-12T03:37:24.511Z,996.58
2017-01-12T03:38:24.921Z,996.51
2017-01-12T03:39:24.795Z,996.51
2017-01-12T03:40:24.877Z,996.54
2017-01-12T03:41:24.994Z,996.48
2017-01-12T03:42:24.886Z,996.58
2017-01-12T03:43:24.864Z,996.68
2017-01-12T03:44:24.758Z,996.62
2017-01-12T03:45:25.103Z,996.58
2017-01-12T03:46:24.747Z,996.68
2017-01-12T03:47:25.441Z,996.6
2017-01-12T03:48:24.792Z,996.62
2017-01-12T03:49:24.859Z,996.6
2017-01-12T03:50:24.990Z,996.59
2017-01-12T03:51:24.993Z,996.66
2017-01-12T03:52:24.921Z,996.55
2017-01-12T03:53:25.089Z,996.62
2017-01-12T03:54:25.057Z,996.55
2017-01-12T03:55:24.926Z,996.58
2017-01-12T03:56:25.003Z,996.53
2017-01-12T03:57:25.214Z,996.5
2017-01-12T03:58:24.905Z,996.59
2017-01-12T03:59:25.094Z,996.49
2017-01-12T04:00:25.166Z,996.52
2017-01-12T04:01:24.970Z,996.57
2017-01-12T04:02:24.965Z,996.61
2017-01-12T04:03:25.356Z,996.61
2017-01-12T04:04:24.962Z,996.54
2017-01-12T04:05:25.120Z,996.61
2017-01-12T04:06:25.128Z,996.5
2017-01-12T04:07:24.905Z,996.74
2017-01-12T04:08:25.205Z,996.7
2017-01-12T04:09:24.929Z,996.68
2017-01-12T04:10:25.293Z,996.67
2017-01-12T04:11:25.103Z,996.65
2017-01-12T04:12:25.294Z,996.6
2017-01-12T04:13:25.065Z,996.64
2017-01-12T04:14:25.073Z,996.62
2017-01-12T04:15:25.305Z,996.68
2017-01-12T04:16:25.324Z,996.6
2017-01-12T04:17:25.239Z,996.66
2017-01-12T04:18:25.259Z,996.63
2017-01-12T04:19:25.252Z,996.72
2017-01-12T04:20:25.245Z,996.71
2017-01-12T04:21:25.130Z,996.75
2017-01-12T04:22:25.522Z,996.71
2017-01-12T04:23:25.494Z,996.75
2017-01-12T04:24:25.400Z,996.67
2017-01-12T04:25:25.270Z,996.75
2017-01-12T04:26:25.204Z,996.77
2017-01-12T04:27:25.506Z,996.71
2017-01-12T04:28:25.450Z,996.75
2017-01-12T04:29:25.231Z,996.84
2017-01-12T04:30:25.536Z,996.69
2017-01-12T04:31:25.382Z,996.83
2017-01-12T04:32:25.338Z,996.74
2017-01-12T04:33:25.561Z,996.82
2017-01-12T04:34:25.556Z,996.8
2017-01-12T04:35:25.506Z,996.87
2017-01-12T04:36:25.319Z,996.79
2017-01-12T04:37:25.691Z,996.81
2017-01-12T04:38:25.421Z,996.77
2017-01-12T04:39:25.448Z,996.74
2017-01-12T04:40:25.455Z,996.71
2017-01-12T04:41:25.536Z,996.81
2017-01-12T04:42:25.555Z,996.98
2017-01-12T04:43:25.461Z,996.85
2017-01-12T04:44:25.592Z,996.83
2017-01-12T04:45:25.517Z,996.93
2017-01-12T04:46:25.580Z,996.92
2017-01-12T04:47:25.587Z,996.94
2017-01-12T04:48:25.950Z,997
2017-01-12T04:49:25.774Z,996.96
2017-01-12T04:50:25.715Z,996.91
2017-01-12T04:51:25.853Z,996.89
2017-01-12T04:52:25.862Z,996.9
2017-01-12T04:53:25.889Z,996.94
2017-01-12T04:54:25.652Z,996.88
2017-01-12T04:55:25.683Z,996.85
2017-01-12T04:56:25.774Z,996.94
2017-01-12T04:57:25.631Z,996.99
2017-01-12T04:58:25.636Z,996.84
2017-01-12T04:59:25.814Z,996.96
2017-01-12T05:00:26.072Z,996.94
2017-01-12T05:01:25.649Z,996.94
2017-01-12T05:02:25.811Z,996.98
2017-01-12T05:03:25.878Z,997
2017-01-12T05:04:25.799Z,996.92
2017-01-12T05:05:25.977Z,996.99
2017-01-12T05:06:25.839Z,996.93
2017-01-12T05:07:25.759Z,996.95
2017-01-12T05:08:26.034Z,996.95
2017-01-12T05:09:26.059Z,996.96
2017-01-12T05:10:26.082Z,996.91
2017-01-12T05:11:26.275Z,997.01
2017-01-12T05:12:26.670Z,996.97
2017-01-12T05:13:26.196Z,996.95
2017-01-12T05:14:26.316Z,996.98
2017-01-12T05:15:26.646Z,997.02
2017-01-12T05:16:26.198Z,997
2017-01-12T05:17:26.812Z,996.97
2017-01-12T05:18:26.508Z,996.93
2017-01-12T05:19:26.379Z,996.93
2017-01-12T05:20:26.580Z,996.95
2017-01-12T05:21:26.559Z,996.91
2017-01-12T05:22:26.957Z,996.88
2017-01-12T05:23:26.163Z,997.02
2017-01-12T05:24:26.183Z,996.9
2017-01-12T05:25:26.841Z,996.93
2017-01-12T05:26:26.591Z,997.02
2017-01-12T05:27:26.339Z,996.85
2017-01-12T05:28:26.627Z,996.94
2017-01-12T05:29:26.311Z,996.91
2017-01-12T05:30:26.405Z,996.9
2017-01-12T05:31:26.502Z,996.88
2017-01-12T05:32:26.836Z,996.93
2017-01-12T05:33:26.400Z,996.86
2017-01-12T05:34:26.378Z,996.98
2017-01-12T05:35:27.291Z,997.01
2017-01-12T05:36:26.777Z,997.09
2017-01-12T05:37:26.490Z,996.99
2017-01-12T05:38:28.009Z,997.01
2017-01-12T05:39:26.782Z,996.98
2017-01-12T05:40:26.339Z,996.98
2017-01-12T05:41:26.674Z,997.02
2017-01-12T05:42:26.706Z,997.02
2017-01-12T05:43:27.866Z,997.09
2017-01-12T05:44:26.559Z,997.1
2017-01-12T05:45:26.432Z,997.07
2017-01-12T05:46:26.708Z,997.1
2017-01-12T05:47:26.532Z,997.11
2017-01-12T05:48:26.683Z,997.02
2017-01-12T05:49:26.680Z,997.09
2017-01-12T05:50:26.815Z,997.11
2017-01-12T05:51:26.872Z,997.05
2017-01-12T05:52:26.604Z,997.15
2017-01-12T05:53:26.580Z,997.13
2017-01-12T05:54:26.632Z,997.12
2017-01-12T05:55:26.559Z,997.09
2017-01-12T05:56:26.444Z,997.08
2017-01-12T05:57:26.969Z,997.08
2017-01-12T05:58:26.719Z,997.1
2017-01-12T05:59:26.528Z,997.11
2017-01-12T06:00:26.659Z,997.11
2017-01-12T06:01:26.990Z,997.15
2017-01-12T06:02:26.573Z,997.11
2017-01-12T06:03:26.720Z,997.12
2017-01-12T06:04:26.529Z,997.12
2017-01-12T06:05:26.653Z,997.18
2017-01-12T06:06:26.979Z,997.13
2017-01-12T06:07:27.444Z,997.06
2017-01-12T06:08:27.506Z,997.13
2017-01-12T06:09:27.037Z,997.2
2017-01-12T06:10:27.242Z,997.09
2017-01-12T06:11:26.908Z,997.1
2017-01-12T06:12:27.081Z,997.06
2017-01-12T06:13:26.845Z,997.13
2017-01-12T06:14:27.386Z,997.16
2017-01-12T06:15:26.986Z,997.09
2017-01-12T06:16:27.001Z,997.13
2017-01-12T06:17:27.212Z,997.06
2017-01-12T06:18:27.232Z,997.13
2017-01-12T06:19:27.073Z,997.05
2017-01-12T06:20:27.187Z,997.11
2017-01-12T06:21:27.180Z,997.08
2017-01-12T06:22:27.104Z,997.02
2017-01-12T06:23:27.978Z,997.06
2017-01-12T06:24:27.283Z,997.14
2017-01-12T06:25:27.062Z,997.07
2017-01-12T06:26:26.942Z,996.97
2017-01-12T06:27:27.329Z,996.89
2017-01-12T06:28:27.579Z,996.95
2017-01-12T06:29:27.050Z,997.01
2017-01-12T06:30:27.010Z,997
2017-01-12T06:31:26.996Z,997.01
2017-01-12T06:32:27.009Z,997.02
2017-01-12T06:33:27.797Z,996.94
2017-01-12T06:34:27.192Z,996.98
2017-01-12T06:35:26.997Z,996.92
2017-01-12T06:36:27.020Z,996.93
2017-01-12T06:37:27.106Z,997
2017-01-12T06:38:27.265Z,996.96
2017-01-12T06:39:27.003Z,997.06
2017-01-12T06:40:27.166Z,996.93
2017-01-12T06:41:27.139Z,996.89
2017-01-12T06:42:27.562Z,997.05
2017-01-12T06:43:27.158Z,996.94
2017-01-12T06:44:27.130Z,997.04
2017-01-12T06:45:27.928Z,997.03
2017-01-12T06:46:27.125Z,996.97
2017-01-12T06:47:27.123Z,996.93
2017-01-12T06:48:27.137Z,996.91
2017-01-12T06:49:27.829Z,996.95
2017-01-12T06:50:27.139Z,996.9
2017-01-12T06:51:27.569Z,996.93
2017-01-12T06:52:27.797Z,996.94
2017-01-12T06:53:27.645Z,996.97
2017-01-12T06:54:27.254Z,996.93
2017-01-12T06:55:27.214Z,996.95
2017-01-12T06:56:27.794Z,996.96
2017-01-12T06:57:27.375Z,997.01
2017-01-12T06:58:28.158Z,996.99
2017-01-12T06:59:27.698Z,996.96
2017-01-12T07:00:27.684Z,996.92
2017-01-12T07:01:27.958Z,996.91
2017-01-12T07:02:27.956Z,996.88
2017-01-12T07:03:28.416Z,996.94
2017-01-12T07:04:28.205Z,997
2017-01-12T07:05:27.896Z,996.95
2017-01-12T07:06:28.113Z,996.93
2017-01-12T07:07:28.856Z,996.79
2017-01-12T07:08:27.848Z,996.81
2017-01-12T07:09:28.130Z,996.93
2017-01-12T07:10:27.951Z,996.86
2017-01-12T07:11:27.757Z,996.92
2017-01-12T07:12:28.346Z,996.95
2017-01-12T07:13:27.868Z,996.99
2017-01-12T07:14:27.911Z,996.98
2017-01-12T07:15:27.978Z,996.93
2017-01-12T07:16:27.959Z,997.03
2017-01-12T07:17:28.197Z,997.01
2017-01-12T07:18:28.758Z,996.97
2017-01-12T07:19:27.975Z,996.98
2017-01-12T07:20:28.351Z,996.99
2017-01-12T07:21:27.919Z,997.06
2017-01-12T07:22:28.036Z,997.05
2017-01-12T07:23:28.031Z,997.1
2017-01-12T07:24:28.161Z,997.06
2017-01-12T07:25:27.744Z,997.17
2017-01-12T07:26:28.220Z,997.11
2017-01-12T07:27:28.261Z,997.15
2017-01-12T07:28:28.228Z,997.09
2017-01-12T07:29:28.220Z,997.18
2017-01-12T07:30:27.938Z,997.15
2017-01-12T07:31:28.074Z,997.09
2017-01-12T07:32:27.881Z,996.98
2017-01-12T07:33:27.973Z,997
2017-01-12T07:34:27.944Z,997
2017-01-12T07:35:28.667Z,997.05
2017-01-12T07:36:27.807Z,997.1
2017-01-12T07:37:27.860Z,997.14
2017-01-12T07:38:27.962Z,997.1
2017-01-12T07:39:28.168Z,997.11
2017-01-12T07:40:27.902Z,997.09
2017-01-12T07:41:27.932Z,997.16
2017-01-12T07:42:28.696Z,997.16
2017-01-12T07:43:28.063Z,997.22
2017-01-12T07:44:28.312Z,997.17
2017-01-12T07:45:28.255Z,997.22
2017-01-12T07:46:28.579Z,997.09
2017-01-12T07:47:27.944Z,997.11
2017-01-12T07:48:28.330Z,997.22
2017-01-12T07:49:28.038Z,997.24
2017-01-12T07:50:28.265Z,997.23
2017-01-12T07:51:28.364Z,997.17
2017-01-12T07:52:28.495Z,997.23
2017-01-12T07:53:28.285Z,997.26
2017-01-12T07:54:28.644Z,997.2
2017-01-12T07:55:28.114Z,997.23
2017-01-12T07:56:28.240Z,997.19
2017-01-12T07:57:28.478Z,997.18
2017-01-12T07:58:28.369Z,997.11
2017-01-12T07:59:28.616Z,997.12
2017-01-12T08:00:28.183Z,997.07
2017-01-12T08:01:28.447Z,997.15
2017-01-12T08:02:28.352Z,997.16
2017-01-12T08:03:28.944Z,997.16
2017-01-12T08:04:28.447Z,997.25
2017-01-12T08:05:28.594Z,997.3
2017-01-12T08:06:28.271Z,997.22
2017-01-12T08:07:28.268Z,997.21
2017-01-12T08:08:28.262Z,997.25
2017-01-12T08:09:28.343Z,997.22
2017-01-12T08:10:28.619Z,997.27
2017-01-12T08:11:28.352Z,997.31
2017-01-12T08:12:28.595Z,997.31
2017-01-12T08:13:28.515Z,997.35
2017-01-12T08:14:28.531Z,997.35
2017-01-12T08:15:28.535Z,997.35
2017-01-12T08:16:28.551Z,997.42
2017-01-12T08:17:28.536Z,997.5
2017-01-12T08:18:28.489Z,997.41
2017-01-12T08:19:28.783Z,997.41
2017-01-12T08:20:28.326Z,997.41
2017-01-12T08:21:28.657Z,997.43
2017-01-12T08:22:28.841Z,997.46
2017-01-12T08:23:28.472Z,997.43
2017-01-12T08:24:28.674Z,997.42
2017-01-12T08:25:28.510Z,997.43
2017-01-12T08:26:28.636Z,997.39
2017-01-12T08:27:28.649Z,997.45
2017-01-12T08:28:28.549Z,997.43
2017-01-12T08:29:28.879Z,997.47
2017-01-12T08:30:28.812Z,997.53
2017-01-12T08:31:28.806Z,997.52
2017-01-12T08:32:28.636Z,997.44
2017-01-12T08:33:28.974Z,997.45
2017-01-12T08:34:28.766Z,997.48
2017-01-12T08:35:28.872Z,997.52
2017-01-12T08:36:29.052Z,997.4
2017-01-12T08:37:28.753Z,997.43
2017-01-12T08:38:28.807Z,997.51
2017-01-12T08:39:28.825Z,997.58
2017-01-12T08:40:28.724Z,997.49
2017-01-12T08:41:29.042Z,997.5
2017-01-12T08:42:28.858Z,997.5
2017-01-12T08:43:28.829Z,997.57
2017-01-12T08:44:29.186Z,997.61
2017-01-12T08:45:28.812Z,997.57
2017-01-12T08:46:28.886Z,997.6
2017-01-12T08:47:28.826Z,997.58
2017-01-12T08:48:29.620Z,997.51
2017-01-12T08:49:28.941Z,997.51
2017-01-12T08:50:28.892Z,997.5
2017-01-12T08:51:29.046Z,997.56
2017-01-12T08:52:28.975Z,997.55
2017-01-12T08:53:29.173Z,997.53
2017-01-12T08:54:29.032Z,997.58
2017-01-12T08:55:28.872Z,997.63
2017-01-12T08:56:28.882Z,997.7
2017-01-12T08:57:28.908Z,997.73
2017-01-12T08:58:29.079Z,997.74
2017-01-12T08:59:29.092Z,997.75
2017-01-12T09:00:29.186Z,997.76
2017-01-12T09:01:29.625Z,997.79
2017-01-12T09:02:28.926Z,997.78
2017-01-12T09:03:29.059Z,997.71
2017-01-12T09:04:29.214Z,997.75
2017-01-12T09:05:30.107Z,997.78
2017-01-12T09:06:29.348Z,997.75
2017-01-12T09:07:29.432Z,997.81
2017-01-12T09:08:29.155Z,997.82
2017-01-12T09:09:29.703Z,997.81
2017-01-12T09:10:29.154Z,997.8
2017-01-12T09:11:29.735Z,997.82
2017-01-12T09:12:29.519Z,997.82
2017-01-12T09:13:29.638Z,997.81
2017-01-12T09:14:29.323Z,997.77
2017-01-12T09:15:29.430Z,997.88
2017-01-12T09:16:29.696Z,997.92
2017-01-12T09:17:29.670Z,997.99
2017-01-12T09:18:29.595Z,997.98
2017-01-12T09:19:29.908Z,998.01
2017-01-12T09:20:29.682Z,997.94
2017-01-12T09:21:29.649Z,997.98
2017-01-12T09:22:29.566Z,997.95
2017-01-12T09:23:29.349Z,998.05
2017-01-12T09:24:29.426Z,997.99
2017-01-12T09:25:30.022Z,998.03
2017-01-12T09:26:29.605Z,998.02
2017-01-12T09:27:29.483Z,998.02
2017-01-12T09:28:29.794Z,998.07
2017-01-12T09:29:29.803Z,998.02
2017-01-12T09:30:29.689Z,998.07
2017-01-12T09:31:29.497Z,998.06
2017-01-12T09:32:29.727Z,998.06
2017-01-12T09:33:29.505Z,998.06
2017-01-12T09:34:29.633Z,997.94
2017-01-12T09:35:29.628Z,998.01
2017-01-12T09:36:29.596Z,998.04
2017-01-12T09:37:29.911Z,998.05
2017-01-12T09:38:30.054Z,998.11
2017-01-12T09:39:29.608Z,998.08
2017-01-12T09:40:29.807Z,998.05
2017-01-12T09:41:29.950Z,998.05
2017-01-12T09:42:29.813Z,998.15
2017-01-12T09:43:29.674Z,998.14
2017-01-12T09:44:29.645Z,998.13
2017-01-12T09:45:30.017Z,998.18
2017-01-12T09:46:29.988Z,998.11
2017-01-12T09:47:29.894Z,998.01
2017-01-12T09:48:29.950Z,998
2017-01-12T09:49:29.977Z,998.06
2017-01-12T09:50:29.823Z,998.02
2017-01-12T09:51:29.975Z,998.07
2017-01-12T09:52:30.017Z,998.15
2017-01-12T09:53:29.792Z,998.07
2017-01-12T09:54:30.070Z,998.07
2017-01-12T09:55:30.703Z,998.13
2017-01-12T09:56:29.781Z,998.14
2017-01-12T09:57:29.889Z,998.07
2017-01-12T09:58:29.782Z,998.04
2017-01-12T09:59:29.898Z,997.98
2017-01-12T10:00:30.036Z,998.08
2017-01-12T10:01:30.016Z,998.07
2017-01-12T10:02:29.835Z,998.03
2017-01-12T10:03:29.787Z,997.95
2017-01-12T10:04:29.837Z,997.97
2017-01-12T10:05:29.906Z,997.99
2017-01-12T10:06:29.975Z,997.97
2017-01-12T10:07:30.070Z,997.91
2017-01-12T10:08:30.299Z,997.96
2017-01-12T10:09:30.110Z,997.94
2017-01-12T10:10:30.221Z,997.93
2017-01-12T10:11:30.244Z,997.97
2017-01-12T10:12:30.223Z,997.98
2017-01-12T10:13:30.030Z,997.99
2017-01-12T10:14:30.281Z,997.94
2017-01-12T10:15:30.099Z,997.99
2017-01-12T10:16:30.224Z,997.92
2017-01-12T10:17:30.061Z,997.87
2017-01-12T10:18:30.020Z,997.93
2017-01-12T10:19:30.657Z,997.84
2017-01-12T10:20:30.550Z,997.89
2017-01-12T10:21:30.209Z,997.86
2017-01-12T10:22:30.405Z,997.91
2017-01-12T10:23:30.146Z,997.84
2017-01-12T10:24:30.221Z,997.83
2017-01-12T10:25:30.523Z,997.84
2017-01-12T10:26:30.490Z,997.84
2017-01-12T10:27:30.405Z,997.86
2017-01-12T10:28:30.414Z,997.88
2017-01-12T10:29:30.212Z,997.78
2017-01-12T10:30:30.301Z,997.83
2017-01-12T10:31:30.278Z,997.86
2017-01-12T10:32:30.381Z,997.85
2017-01-12T10:33:30.599Z,997.81
2017-01-12T10:34:30.829Z,997.82
2017-01-12T10:35:30.471Z,997.74
2017-01-12T10:36:30.387Z,997.63
2017-01-12T10:37:30.569Z,997.72
2017-01-12T10:38:30.448Z,997.71
2017-01-12T10:39:30.405Z,997.68
2017-01-12T10:40:30.547Z,997.63
2017-01-12T10:41:30.441Z,997.73
2017-01-12T10:42:30.621Z,997.65
2017-01-12T10:43:30.409Z,997.7
2017-01-12T10:44:30.785Z,997.74
2017-01-12T10:45:30.460Z,997.71
2017-01-12T10:46:30.407Z,997.64
2017-01-12T10:47:30.884Z,997.57
2017-01-12T10:48:30.559Z,997.53
2017-01-12T10:49:30.726Z,997.55
2017-01-12T10:50:30.454Z,997.49
2017-01-12T10:51:30.527Z,997.46
2017-01-12T10:52:30.722Z,997.5
2017-01-12T10:53:30.579Z,997.43
2017-01-12T10:54:30.768Z,997.44
2017-01-12T10:55:30.840Z,997.43
2017-01-12T10:56:30.812Z,997.46
2017-01-12T10:57:30.926Z,997.41
2017-01-12T10:58:30.808Z,997.41
2017-01-12T10:59:30.804Z,997.4
2017-01-12T11:00:30.756Z,997.31
2017-01-12T11:01:31.053Z,997.31
2017-01-12T11:02:30.742Z,997.35
2017-01-12T11:03:30.726Z,997.42
2017-01-12T11:04:30.691Z,997.38
2017-01-12T11:05:31.000Z,997.39
2017-01-12T11:06:31.024Z,997.39
2017-01-12T11:07:31.144Z,997.37
2017-01-12T11:08:30.931Z,997.32
2017-01-12T11:09:30.900Z,997.36
2017-01-12T11:10:30.789Z,997.36
2017-01-12T11:11:31.031Z,997.36
2017-01-12T11:12:31.056Z,997.36
2017-01-12T11:13:30.936Z,997.27
2017-01-12T11:14:30.979Z,997.23
2017-01-12T11:15:30.947Z,997.26
2017-01-12T11:16:30.999Z,997.19
2017-01-12T11:17:31.017Z,997.27
2017-01-12T11:18:31.164Z,997.26
2017-01-12T11:19:30.937Z,997.3
2017-01-12T11:20:31.025Z,997.26
2017-01-12T11:21:31.459Z,997.21
2017-01-12T11:22:31.135Z,997.17
2017-01-12T11:23:31.150Z,997.11
2017-01-12T11:24:31.469Z,997.14
2017-01-12T11:25:31.106Z,996.97
2017-01-12T11:26:31.071Z,997.01
2017-01-12T11:27:31.127Z,996.98
2017-01-12T11:28:31.081Z,997.06
2017-01-12T11:29:31.161Z,996.95
2017-01-12T11:30:31.249Z,997
2017-01-12T11:31:31.157Z,996.97
2017-01-12T11:32:31.148Z,997.02
2017-01-12T11:33:31.073Z,996.89
2017-01-12T11:34:31.223Z,996.83
2017-01-12T11:35:31.237Z,996.92
2017-01-12T11:36:31.235Z,996.87
2017-01-12T11:37:31.378Z,996.82
2017-01-12T11:38:31.518Z,996.82
2017-01-12T11:39:31.355Z,996.78
2017-01-12T11:40:31.462Z,996.74
2017-01-12T11:41:31.363Z,996.79
2017-01-12T11:42:31.385Z,996.75
2017-01-12T11:43:31.285Z,996.74
2017-01-12T11:44:31.353Z,996.69
2017-01-12T11:45:31.609Z,996.7
2017-01-12T11:46:31.468Z,996.62
2017-01-12T11:47:31.442Z,996.66
2017-01-12T11:48:31.378Z,996.53
2017-01-12T11:49:31.744Z,996.54
2017-01-12T11:50:31.412Z,996.63
2017-01-12T11:51:31.818Z,996.62
2017-01-12T11:52:31.538Z,996.55
2017-01-12T11:53:31.609Z,996.56
2017-01-12T11:54:31.593Z,996.58
2017-01-12T11:55:31.870Z,996.61
2017-01-12T11:56:31.699Z,996.65
2017-01-12T11:57:31.603Z,996.52
2017-01-12T11:58:31.728Z,996.58
2017-01-12T11:59:31.731Z,996.61
2017-01-12T12:00:31.693Z,996.55
2017-01-12T12:01:31.723Z,996.49
2017-01-12T12:02:31.844Z,996.45
2017-01-12T12:03:31.761Z,996.45
2017-01-12T12:04:31.676Z,996.52
2017-01-12T12:05:32.140Z,996.41
2017-01-12T12:06:31.639Z,996.5
2017-01-12T12:07:32.010Z,996.41
2017-01-12T12:08:31.741Z,996.45
2017-01-12T12:09:31.746Z,996.39
2017-01-12T12:10:32.010Z,996.38
2017-01-12T12:11:32.410Z,996.37
2017-01-12T12:12:31.793Z,996.36
2017-01-12T12:13:32.075Z,996.37
2017-01-12T12:14:32.294Z,996.38
2017-01-12T12:15:32.015Z,996.35
2017-01-12T12:16:31.928Z,996.38
2017-01-12T12:17:32.011Z,996.38
2017-01-12T12:18:31.984Z,996.4
2017-01-12T12:19:32.172Z,996.32
2017-01-12T12:20:32.474Z,996.27
2017-01-12T12:21:31.897Z,996.36
2017-01-12T12:22:31.899Z,996.24
2017-01-12T12:23:32.245Z,996.31
2017-01-12T12:24:31.897Z,996.24
2017-01-12T12:25:31.970Z,996.19
2017-01-12T12:26:32.026Z,996.18
2017-01-12T12:27:32.049Z,996.12
2017-01-12T12:28:31.895Z,996.1
2017-01-12T12:29:31.948Z,996.17
2017-01-12T12:30:32.336Z,996.12
2017-01-12T12:31:32.012Z,996.08